createdAt,value
2018-06-30T00:02:01.652Z,16.90
2018-06-30T00:04:30.355Z,18.83
2018-06-30T00:06:59.220Z,21.40
2018-06-30T00:09:27.940Z,19.50
2018-06-30T00:11:56.592Z,16.07
2018-06-30T00:14:25.267Z,16.73
2018-06-30T00:16:53.872Z,19.70
2018-06-30T00:19:22.709Z,17.50
2018-06-30T00:21:51.412Z,25.13
2018-06-30T00:24:20.076Z,18.37
2018-06-30T00:26:48.928Z,17.23
2018-06-30T00:29:17.564Z,19.87
2018-06-30T00:31:46.279Z,18.67
2018-06-30T00:34:15.067Z,17.90
2018-06-30T00:36:43.707Z,18.80
2018-06-30T00:39:12.482Z,18.60
2018-06-30T00:41:41.337Z,19.93
2018-06-30T00:44:10.017Z,19.73
2018-06-30T00:46:38.706Z,18.90
2018-06-30T00:49:07.377Z,17.80
2018-06-30T00:51:36.013Z,19.47
2018-06-30T00:54:04.725Z,18.03
2018-06-30T00:56:33.405Z,18.10
2018-06-30T00:59:02.052Z,21.83
2018-06-30T01:01:30.776Z,19.77
2018-06-30T01:03:59.616Z,22.27
2018-06-30T01:06:28.599Z,24.37
2018-06-30T01:08:57.392Z,23.27
2018-06-30T01:11:26.048Z,18.93
2018-06-30T01:13:54.691Z,20.87
2018-06-30T01:16:23.409Z,21.60
2018-06-30T01:18:52.097Z,21.03
2018-06-30T01:21:20.903Z,20.50
2018-06-30T01:23:49.708Z,19.77
2018-06-30T01:26:18.407Z,19.47
2018-06-30T01:28:47.056Z,19.23
2018-06-30T01:31:15.788Z,19.70
2018-06-30T01:33:44.457Z,18.57
2018-06-30T01:36:13.185Z,17.73
2018-06-30T01:38:41.897Z,18.40
2018-06-30T01:41:10.554Z,18.93
2018-06-30T01:43:39.264Z,19.13
2018-06-30T01:46:08.153Z,18.17
2018-06-30T01:48:36.947Z,22.10
2018-06-30T01:51:05.857Z,19.93
2018-06-30T01:53:34.577Z,26.13
2018-06-30T01:56:03.669Z,21.43
2018-06-30T01:58:32.476Z,20.73
2018-06-30T02:01:01.201Z,19.50
2018-06-30T02:03:30.052Z,19.73
2018-06-30T02:05:59.140Z,21.03
2018-06-30T02:08:27.888Z,22.40
2018-06-30T02:10:56.680Z,17.90
2018-06-30T02:13:25.360Z,20.43
2018-06-30T02:15:54.055Z,20.90
2018-06-30T02:18:22.784Z,22.33
2018-06-30T02:20:51.647Z,21.47
2018-06-30T02:23:20.380Z,21.97
2018-06-30T02:25:49.084Z,29.23
2018-06-30T02:28:17.953Z,26.20
2018-06-30T02:30:46.725Z,25.70
2018-06-30T02:33:15.385Z,23.77
2018-06-30T02:35:44.215Z,31.30
2018-06-30T02:38:12.970Z,22.97
2018-06-30T02:40:41.665Z,21.27
2018-06-30T02:43:10.317Z,20.83
2018-06-30T02:45:39.106Z,19.53
2018-06-30T02:48:07.861Z,20.30
2018-06-30T02:50:36.559Z,23.13
2018-06-30T02:53:05.259Z,24.07
2018-06-30T02:55:33.964Z,22.60
2018-06-30T02:58:02.688Z,21.50
2018-06-30T03:00:31.318Z,20.33
2018-06-30T03:03:00.022Z,19.47
2018-06-30T03:05:28.702Z,22.10
2018-06-30T03:07:57.355Z,22.30
2018-06-30T03:10:26.112Z,24.43
2018-06-30T03:12:54.809Z,21.67
2018-06-30T03:15:23.469Z,24.10
2018-06-30T03:17:52.173Z,25.63
2018-06-30T03:20:20.893Z,24.97
2018-06-30T03:22:49.506Z,22.67
2018-06-30T03:25:18.192Z,29.27
2018-06-30T03:27:46.894Z,24.97
2018-06-30T03:30:15.540Z,23.20
2018-06-30T03:32:44.278Z,24.67
2018-06-30T03:35:13.013Z,24.20
2018-06-30T03:37:41.636Z,24.80
2018-06-30T03:40:10.472Z,25.23
2018-06-30T03:42:39.192Z,21.53
2018-06-30T03:45:07.874Z,22.93
2018-06-30T03:47:36.540Z,21.07
2018-06-30T03:50:05.478Z,21.00
2018-06-30T03:52:34.191Z,23.07
2018-06-30T03:55:02.856Z,23.27
2018-06-30T03:57:31.505Z,19.43
2018-06-30T04:00:00.237Z,22.27
2018-06-30T04:02:28.890Z,20.90
2018-06-30T04:04:57.554Z,21.93
2018-06-30T04:07:26.167Z,21.90
2018-06-30T04:09:54.770Z,22.93
2018-06-30T04:12:23.489Z,25.23
2018-06-30T04:14:52.393Z,25.90
2018-06-30T04:17:21.013Z,21.33
2018-06-30T04:19:49.691Z,22.30
2018-06-30T04:22:18.392Z,20.90
2018-06-30T04:24:47.081Z,27.40
2018-06-30T04:27:15.700Z,21.17
2018-06-30T04:29:44.478Z,15.70
2018-06-30T04:32:13.176Z,19.40
2018-06-30T04:34:41.863Z,21.03
2018-06-30T04:37:10.520Z,23.50
2018-06-30T04:39:39.142Z,19.23
2018-06-30T04:42:07.823Z,17.20
2018-06-30T04:44:36.690Z,18.23
2018-06-30T04:47:05.434Z,21.27
2018-06-30T04:49:34.141Z,19.50
2018-06-30T04:52:02.846Z,21.10
2018-06-30T04:54:31.470Z,23.40
2018-06-30T04:57:00.193Z,24.70
2018-06-30T04:59:28.926Z,23.20
2018-06-30T05:01:57.709Z,27.70
2018-06-30T05:04:26.485Z,30.40
2018-06-30T05:06:55.226Z,33.47
2018-06-30T05:09:24.094Z,22.70
2018-06-30T05:11:53.198Z,21.50
2018-06-30T05:14:21.945Z,28.70
2018-06-30T05:16:50.690Z,22.93
2018-06-30T05:19:19.356Z,21.10
2018-06-30T05:24:40.479Z,27.00
2018-06-30T05:27:09.388Z,20.57
2018-06-30T05:29:38.188Z,22.17
2018-06-30T05:32:07.047Z,20.27
2018-06-30T05:34:37.366Z,23.73
2018-06-30T05:37:05.998Z,20.07
2018-06-30T05:39:34.745Z,20.20
2018-06-30T05:44:55.986Z,21.43
2018-06-30T05:47:24.750Z,22.80
2018-06-30T05:49:53.444Z,26.00
2018-06-30T05:52:22.208Z,27.27
2018-06-30T05:54:51.132Z,27.33
2018-06-30T05:57:19.845Z,26.87
2018-06-30T05:59:48.764Z,25.80
2018-06-30T06:02:17.470Z,25.90
2018-06-30T06:04:46.233Z,25.77
2018-06-30T06:07:16.747Z,22.43
2018-06-30T06:09:45.793Z,21.57
2018-06-30T06:12:14.558Z,22.17
2018-06-30T06:14:43.190Z,22.03
2018-06-30T06:17:12.151Z,23.03
2018-06-30T06:22:33.882Z,24.83
2018-06-30T06:25:02.620Z,23.13
2018-06-30T06:27:31.508Z,22.37
2018-06-30T06:30:00.296Z,24.87
2018-06-30T06:32:29.152Z,23.53
2018-06-30T06:40:43.138Z,40.23
2018-06-30T06:43:11.853Z,21.47
2018-06-30T06:45:41.185Z,23.50
2018-06-30T06:48:09.912Z,25.50
2018-06-30T06:50:38.605Z,19.87
2018-06-30T06:53:09.164Z,24.07
2018-06-30T06:55:39.348Z,21.77
2018-06-30T06:58:08.101Z,28.30
2018-06-30T07:00:36.891Z,24.77
2018-06-30T07:03:05.571Z,21.30
2018-06-30T07:05:34.240Z,22.97
2018-06-30T07:08:03.034Z,22.53
2018-06-30T07:10:33.748Z,27.37
2018-06-30T07:13:02.550Z,21.67
2018-06-30T07:15:31.334Z,23.57
2018-06-30T07:18:00.034Z,19.83
2018-06-30T07:20:28.806Z,18.40
2018-06-30T07:22:57.510Z,15.73
2018-06-30T07:25:26.296Z,16.40
2018-06-30T07:27:55.032Z,14.30
2018-06-30T07:30:23.853Z,19.60
2018-06-30T07:32:52.809Z,14.93
2018-06-30T07:35:21.511Z,12.93
2018-06-30T07:37:50.434Z,11.67
2018-06-30T07:40:19.172Z,18.30
2018-06-30T07:42:47.789Z,10.80
2018-06-30T07:45:16.403Z,13.50
2018-06-30T07:47:45.078Z,11.83
2018-06-30T07:50:13.999Z,11.80
2018-06-30T07:52:42.710Z,11.03
2018-06-30T07:55:11.397Z,11.27
2018-06-30T07:57:40.113Z,10.23
2018-06-30T08:00:08.719Z,15.33
2018-06-30T08:02:37.396Z,11.40
2018-06-30T08:05:06.441Z,10.50
2018-06-30T08:07:36.239Z,10.77
2018-06-30T08:10:05.097Z,9.90
2018-06-30T08:12:33.762Z,9.93
2018-06-30T08:15:02.515Z,11.60
2018-06-30T08:17:31.466Z,10.27
2018-06-30T08:20:01.009Z,19.10
2018-06-30T08:22:29.911Z,12.30
2018-06-30T08:24:58.594Z,15.20
2018-06-30T08:27:27.337Z,9.67
2018-06-30T08:29:56.089Z,13.57
2018-06-30T08:32:24.728Z,31.83
2018-06-30T08:34:53.429Z,13.60
2018-06-30T08:37:22.230Z,11.17
2018-06-30T08:39:52.075Z,8.40
2018-06-30T08:42:20.731Z,8.70
2018-06-30T08:44:49.438Z,9.03
2018-06-30T08:47:34.714Z,7.87
2018-06-30T08:50:11.297Z,10.93
2018-06-30T08:52:40.013Z,7.73
2018-06-30T08:55:09.006Z,10.40
2018-06-30T08:57:40.643Z,8.60
2018-06-30T09:00:09.655Z,6.97
2018-06-30T09:02:44.247Z,6.90
2018-06-30T09:05:12.970Z,7.07
2018-06-30T09:07:41.584Z,7.43
2018-06-30T09:10:10.334Z,6.63
2018-06-30T09:12:38.980Z,6.53
2018-06-30T09:15:08.457Z,7.23
2018-06-30T09:17:40.701Z,7.10
2018-06-30T09:20:09.568Z,6.83
2018-06-30T09:22:38.332Z,11.63
2018-06-30T09:25:07.275Z,9.87
2018-06-30T09:27:36.038Z,8.03
2018-06-30T09:30:05.786Z,18.30
2018-06-30T09:32:34.870Z,6.77
2018-06-30T09:35:03.809Z,5.83
2018-06-30T09:37:32.503Z,7.10
2018-06-30T09:40:01.214Z,9.57
2018-06-30T09:42:29.907Z,7.07
2018-06-30T09:44:58.567Z,6.30
2018-06-30T09:47:27.266Z,6.60
2018-06-30T09:49:56.072Z,5.90
2018-06-30T09:52:24.859Z,6.33
2018-06-30T09:54:53.612Z,7.30
2018-06-30T09:57:22.324Z,6.20
2018-06-30T09:59:51.108Z,7.10
2018-06-30T10:02:19.911Z,10.33
2018-06-30T10:04:48.498Z,5.87
2018-06-30T10:07:17.196Z,5.83
2018-06-30T10:09:46.017Z,5.30
2018-06-30T10:18:00.362Z,5.10
2018-06-30T10:20:31.251Z,8.40
2018-06-30T10:22:59.877Z,6.10
2018-06-30T10:25:28.610Z,5.63
2018-06-30T10:27:57.268Z,5.87
2018-06-30T10:30:25.967Z,5.20
2018-06-30T10:32:54.735Z,7.60
2018-06-30T10:35:23.815Z,5.00
2018-06-30T10:37:52.614Z,5.37
2018-06-30T10:40:21.403Z,5.53
2018-06-30T10:42:50.070Z,5.13
2018-06-30T10:45:18.811Z,6.17
2018-06-30T10:47:47.561Z,5.23
2018-06-30T10:50:16.219Z,4.93
2018-06-30T10:52:44.935Z,4.90
2018-06-30T10:55:13.682Z,6.33
2018-06-30T10:57:42.435Z,5.50
2018-06-30T11:00:11.197Z,7.83
2018-06-30T11:02:39.924Z,4.53
2018-06-30T11:05:08.915Z,5.10
2018-06-30T11:07:37.902Z,5.30
2018-06-30T11:10:06.526Z,4.43
2018-06-30T11:12:35.390Z,4.30
2018-06-30T11:15:04.361Z,4.87
2018-06-30T11:17:33.268Z,4.83
2018-06-30T11:20:02.190Z,4.03
2018-06-30T11:22:31.178Z,4.40
2018-06-30T11:25:00.017Z,4.57
2018-06-30T11:27:28.770Z,4.00
2018-06-30T11:29:57.645Z,6.43
2018-06-30T11:32:26.304Z,4.03
2018-06-30T11:34:55.030Z,4.93
2018-06-30T11:37:23.847Z,5.27
2018-06-30T11:39:52.665Z,4.60
2018-06-30T11:42:21.340Z,8.07
2018-06-30T11:44:50.136Z,7.80
2018-06-30T11:47:18.777Z,7.50
2018-06-30T11:49:47.644Z,3.40
2018-06-30T11:52:16.444Z,4.43
2018-06-30T11:54:45.169Z,4.40
2018-06-30T11:57:13.849Z,6.27
2018-06-30T11:59:42.595Z,10.70
2018-06-30T12:02:11.439Z,3.73
2018-06-30T12:04:40.146Z,6.00
2018-06-30T12:07:08.941Z,5.17
2018-06-30T12:09:37.692Z,4.10
2018-06-30T12:12:06.612Z,4.77
2018-06-30T12:14:35.427Z,3.90
2018-06-30T12:17:04.079Z,5.13
2018-06-30T12:19:32.901Z,5.60
2018-06-30T12:22:01.634Z,6.37
2018-06-30T12:24:30.359Z,3.00
2018-06-30T12:26:58.966Z,4.10
2018-06-30T12:29:27.712Z,3.37
2018-06-30T12:31:56.431Z,3.17
2018-06-30T12:34:25.281Z,5.00
2018-06-30T12:36:53.904Z,3.23
2018-06-30T12:39:22.604Z,3.83
2018-06-30T12:41:51.300Z,2.80
2018-06-30T12:44:20.008Z,4.40
2018-06-30T12:46:48.775Z,2.97
2018-06-30T12:49:17.436Z,3.13
2018-06-30T12:51:46.162Z,2.70
2018-06-30T12:54:14.916Z,2.50
2018-06-30T12:56:43.589Z,2.50
2018-06-30T12:59:12.370Z,2.77
2018-06-30T13:01:41.029Z,2.60
2018-06-30T13:04:09.688Z,2.10
2018-06-30T13:06:38.316Z,2.40
2018-06-30T13:09:09.610Z,3.07
2018-06-30T13:11:38.401Z,3.43
2018-06-30T13:14:07.353Z,3.60
2018-06-30T13:16:36.769Z,2.33
2018-06-30T13:19:05.614Z,4.03
2018-06-30T13:21:34.439Z,2.87
2018-06-30T13:24:03.196Z,3.20
2018-06-30T13:26:31.961Z,2.90
2018-06-30T13:29:00.852Z,3.10
2018-06-30T13:31:29.583Z,6.40
2018-06-30T13:33:58.242Z,3.00
2018-06-30T13:36:26.853Z,5.03
2018-06-30T13:38:55.567Z,2.70
2018-06-30T13:41:24.242Z,3.00
2018-06-30T13:43:53.027Z,2.90
2018-06-30T13:46:21.801Z,4.33
2018-06-30T13:48:50.518Z,2.40
2018-06-30T13:51:19.329Z,2.93
2018-06-30T13:53:48.012Z,2.60
2018-06-30T13:56:16.689Z,2.37
2018-06-30T13:58:45.377Z,2.50
2018-06-30T14:01:14.070Z,2.23
2018-06-30T14:03:42.888Z,2.57
2018-06-30T14:06:11.483Z,2.70
2018-06-30T14:08:40.213Z,2.60
2018-06-30T14:11:09.092Z,2.43
2018-06-30T14:13:37.834Z,2.37
2018-06-30T14:16:06.699Z,2.50
2018-06-30T14:18:35.595Z,2.30
2018-06-30T14:21:04.462Z,6.30
2018-06-30T14:23:33.248Z,2.43
2018-06-30T14:26:02.200Z,2.63
2018-06-30T14:28:30.896Z,2.20
2018-06-30T14:30:59.550Z,3.53
2018-06-30T14:33:28.220Z,2.60
2018-06-30T14:35:56.892Z,2.67
2018-06-30T14:38:25.585Z,3.20
2018-06-30T14:40:54.285Z,2.60
2018-06-30T14:43:23.712Z,5.80
2018-06-30T14:45:52.522Z,2.87
2018-06-30T14:48:21.371Z,2.60
2018-06-30T14:50:50.059Z,3.10
2018-06-30T14:53:18.845Z,2.73
2018-06-30T14:55:47.684Z,3.00
2018-06-30T14:58:16.403Z,3.20
2018-06-30T15:00:45.037Z,3.00
2018-06-30T15:03:13.759Z,3.00
2018-06-30T15:05:42.871Z,3.40
2018-06-30T15:08:11.561Z,3.57
2018-06-30T15:10:40.356Z,2.80
2018-06-30T15:13:09.073Z,3.40
2018-06-30T15:15:37.971Z,3.23
2018-06-30T15:18:06.796Z,5.00
2018-06-30T15:20:35.591Z,3.30
2018-06-30T15:23:04.436Z,3.40
2018-06-30T15:25:33.091Z,2.90
2018-06-30T15:28:01.781Z,2.80
2018-06-30T15:30:30.448Z,2.87
2018-06-30T15:32:59.282Z,3.07
2018-06-30T15:35:28.080Z,2.80
2018-06-30T15:37:56.777Z,3.23
2018-06-30T15:40:25.597Z,3.10
2018-06-30T15:42:54.331Z,3.50
2018-06-30T15:45:22.989Z,2.80
2018-06-30T15:47:51.586Z,3.23
2018-06-30T15:50:20.359Z,2.70
2018-06-30T15:52:49.025Z,3.10
2018-06-30T15:55:17.737Z,3.33
2018-06-30T15:57:46.403Z,3.00
2018-06-30T16:00:15.076Z,5.70
2018-06-30T16:02:43.726Z,2.73
2018-06-30T16:05:12.511Z,3.03
2018-06-30T16:07:41.215Z,2.83
2018-06-30T16:10:09.984Z,2.33
2018-06-30T16:12:38.798Z,2.73
2018-06-30T16:15:07.604Z,3.37
2018-06-30T16:17:36.369Z,3.17
2018-06-30T16:20:05.304Z,2.73
2018-06-30T16:22:34.116Z,2.80
2018-06-30T16:25:03.065Z,3.23
2018-06-30T16:27:33.105Z,2.77
2018-06-30T16:30:08.806Z,3.20
2018-06-30T16:32:37.542Z,3.03
2018-06-30T16:35:06.356Z,3.30
2018-06-30T16:37:35.080Z,4.83
2018-06-30T16:40:03.857Z,2.90
2018-06-30T16:42:32.561Z,3.17
2018-06-30T16:45:01.230Z,2.70
2018-06-30T16:47:30.120Z,2.70
2018-06-30T16:49:58.968Z,2.70
2018-06-30T16:52:27.862Z,2.77
2018-06-30T16:54:57.823Z,2.90
2018-06-30T16:57:26.610Z,2.30
2018-06-30T16:59:55.296Z,7.60
2018-06-30T17:02:24.409Z,5.07
2018-06-30T17:04:53.097Z,2.60
2018-06-30T17:07:21.875Z,3.90
2018-06-30T17:09:50.653Z,2.40
2018-06-30T17:12:19.371Z,3.00
2018-06-30T17:14:48.365Z,5.07
2018-06-30T17:17:17.065Z,3.17
2018-06-30T17:19:45.954Z,2.50
2018-06-30T17:22:14.687Z,2.60
2018-06-30T17:24:43.787Z,2.50
2018-06-30T17:27:12.814Z,5.57
2018-06-30T17:29:48.852Z,2.90
2018-06-30T17:32:17.830Z,3.63
2018-06-30T17:34:46.730Z,3.73
2018-06-30T17:37:19.180Z,2.67
2018-06-30T17:39:48.570Z,3.40
2018-06-30T17:42:17.262Z,4.40
2018-06-30T17:44:45.990Z,3.17
2018-06-30T17:47:14.681Z,2.80
2018-06-30T17:49:43.535Z,3.37
2018-06-30T17:52:12.880Z,2.70
2018-06-30T17:54:41.993Z,2.70
2018-06-30T17:57:10.646Z,3.20
2018-06-30T17:59:39.360Z,3.20
2018-06-30T18:02:09.154Z,2.83
2018-06-30T18:04:37.882Z,2.77
2018-06-30T18:07:06.613Z,2.97
2018-06-30T18:09:35.238Z,3.03
2018-06-30T18:12:03.997Z,3.40
2018-06-30T18:14:32.710Z,3.30
2018-06-30T18:17:01.564Z,3.53
2018-06-30T18:19:30.244Z,3.70
2018-06-30T18:21:59.043Z,4.30
2018-06-30T18:24:27.825Z,4.40
2018-06-30T18:26:56.576Z,4.07
2018-06-30T18:29:25.380Z,5.17
2018-06-30T18:31:54.113Z,4.73
2018-06-30T18:34:22.791Z,4.87
2018-06-30T18:36:51.667Z,5.97
2018-06-30T18:39:20.440Z,4.50
2018-06-30T18:41:49.100Z,5.00
2018-06-30T18:44:17.956Z,16.00
2018-06-30T18:46:46.683Z,13.80
2018-06-30T18:49:15.529Z,7.07
2018-06-30T18:51:44.375Z,5.43
2018-06-30T18:54:12.981Z,5.03
2018-06-30T18:56:41.612Z,9.53
2018-06-30T18:59:10.365Z,4.50
2018-06-30T19:01:39.205Z,13.00
2018-06-30T19:04:08.549Z,9.40
2018-06-30T19:06:37.985Z,5.93
2018-06-30T19:09:09.182Z,6.30
2018-06-30T19:11:37.900Z,4.93
2018-06-30T19:14:07.225Z,4.70
2018-06-30T19:16:36.076Z,7.77
2018-06-30T19:19:04.948Z,5.10
2018-06-30T19:21:33.622Z,5.30
2018-06-30T19:24:02.388Z,5.07
2018-06-30T19:26:31.238Z,4.57
2018-06-30T19:29:00.837Z,10.63
2018-06-30T19:31:29.607Z,5.30
2018-06-30T19:33:58.432Z,5.70
2018-06-30T19:36:27.169Z,2.83
2018-06-30T19:38:55.965Z,5.57
2018-06-30T19:41:24.692Z,9.20
2018-06-30T19:43:53.424Z,4.00
2018-06-30T19:46:22.231Z,5.50
2018-06-30T19:48:51.051Z,7.20
2018-06-30T19:51:19.926Z,7.33
2018-06-30T19:53:48.619Z,5.67
2018-06-30T19:56:17.424Z,12.00
2018-06-30T19:58:46.116Z,6.40
2018-06-30T20:01:14.937Z,7.00
2018-06-30T20:03:43.582Z,5.67
2018-06-30T20:06:12.292Z,9.33
2018-06-30T20:08:40.978Z,8.87
2018-06-30T20:11:09.703Z,4.10
2018-06-30T20:13:38.968Z,5.97
2018-06-30T20:16:07.828Z,4.80
2018-06-30T20:18:36.504Z,6.13
2018-06-30T20:21:05.268Z,8.20
2018-06-30T20:23:34.099Z,12.93
2018-06-30T20:26:03.111Z,9.43
2018-06-30T20:28:31.822Z,6.93
2018-06-30T20:31:00.693Z,10.73
2018-06-30T20:33:29.512Z,8.63
2018-06-30T20:35:58.294Z,11.10
2018-06-30T20:38:27.008Z,6.40
2018-06-30T20:40:56.591Z,6.40
2018-06-30T20:43:25.490Z,4.70
2018-06-30T20:45:54.251Z,10.70
2018-06-30T20:48:25.135Z,1.77
2018-06-30T20:51:18.241Z,9.60
2018-06-30T20:53:47.067Z,9.00
2018-06-30T20:56:15.857Z,6.60
2018-06-30T20:58:47.606Z,4.17
2018-06-30T21:01:17.737Z,5.07
2018-06-30T21:03:46.594Z,2.27
2018-06-30T21:06:18.129Z,4.20
2018-06-30T21:08:48.378Z,9.80
2018-06-30T21:11:17.266Z,2.63
2018-06-30T21:13:45.908Z,2.57
2018-06-30T21:16:15.101Z,8.00
2018-06-30T21:18:43.726Z,3.53
2018-06-30T21:21:14.450Z,5.73
2018-06-30T21:23:43.221Z,4.93
2018-06-30T21:26:17.492Z,3.50
2018-06-30T21:28:46.229Z,7.63
2018-06-30T21:31:14.984Z,3.47
2018-06-30T21:33:49.447Z,1.87
2018-06-30T21:36:18.497Z,8.50
2018-06-30T21:38:47.516Z,1.30
2018-06-30T21:41:16.249Z,2.40
2018-06-30T21:43:47.625Z,2.43
2018-06-30T21:46:20.132Z,1.27
2018-06-30T21:48:50.653Z,2.93
2018-06-30T21:51:20.528Z,1.20
2018-06-30T21:53:50.032Z,7.70
2018-06-30T21:56:19.195Z,2.67
2018-06-30T21:58:47.906Z,3.37
2018-06-30T22:01:21.627Z,6.70
2018-06-30T22:03:50.527Z,9.03
2018-06-30T22:06:20.337Z,3.67
2018-06-30T22:08:49.799Z,1.50
2018-06-30T22:11:21.145Z,1.20
2018-06-30T22:13:50.758Z,1.70
2018-06-30T22:16:19.613Z,4.47
2018-06-30T22:18:58.566Z,1.20
2018-06-30T22:21:27.437Z,3.27
2018-06-30T22:23:56.546Z,2.60
2018-06-30T22:26:25.596Z,12.13
2018-06-30T22:28:54.551Z,1.53
2018-06-30T22:31:23.239Z,3.60
2018-06-30T22:33:51.929Z,1.40
2018-06-30T22:36:20.598Z,1.77
2018-06-30T22:38:49.437Z,2.80
2018-06-30T22:41:18.104Z,2.10
2018-06-30T22:43:46.788Z,3.70
2018-06-30T22:46:15.529Z,3.40
2018-06-30T22:48:44.244Z,2.23
2018-06-30T22:51:12.892Z,2.87
2018-06-30T22:53:41.630Z,2.90
2018-06-30T22:56:10.336Z,8.80
2018-06-30T22:58:39.104Z,8.97
2018-06-30T23:01:07.855Z,8.93
2018-06-30T23:03:36.849Z,3.93
2018-06-30T23:06:06.118Z,1.87
2018-06-30T23:08:39.077Z,4.40
2018-06-30T23:11:08.323Z,7.30
2018-06-30T23:13:37.158Z,7.00
2018-06-30T23:16:08.196Z,1.10
2018-06-30T23:18:39.175Z,5.50
2018-06-30T23:21:08.155Z,2.70
2018-06-30T23:23:36.920Z,1.40
2018-06-30T23:26:06.495Z,2.37
2018-06-30T23:28:35.353Z,5.00
2018-06-30T23:31:05.372Z,0.90
2018-06-30T23:33:37.046Z,5.13
2018-06-30T23:36:05.946Z,1.67
2018-06-30T23:38:34.727Z,3.20
2018-06-30T23:41:04.475Z,2.80
2018-06-30T23:43:33.272Z,3.77
2018-06-30T23:46:01.928Z,1.67
2018-06-30T23:48:30.769Z,3.43
2018-06-30T23:50:59.541Z,4.53
2018-06-30T23:53:28.323Z,2.60
2018-06-30T23:55:57.077Z,1.67
2018-06-30T23:58:25.742Z,3.47
